Time;durP1;ratioP1;P1;durP2;ratioP2;P2;SDS_P1;SDS_P2;PMS_P1;PMS_P2;Temp;Humidity;BMP_temperature;BMP_pressure;BME280_temperature;BME280_humidity;BME280_pressure;Samples;Min_cycle;Max_cycle;Signal;HPM_P1;HPM_P2
2023/02/02 11:55:18;;;;;;;1.73;0.63;;;16.90;48.80;;;;;;6192602;22;1314388;-67
2023/02/02 11:58:23;;;;;;;1.10;0.80;;;16.90;48.80;;;;;;6309092;22;20360;-67
2023/02/02 12:00:57;;;;;;;1.10;0.70;;;16.90;48.70;;;;;;6308267;22;20741;-67
2023/02/02 12:03:29;;;;;;;1.20;0.87;;;16.80;48.70;;;;;;6307878;22;20367;-68
2023/02/02 12:05:55;;;;;;;1.30;0.80;;;16.80;48.70;;;;;;6308133;22;20375;-67
2023/02/02 12:08:21;;;;;;;1.20;0.80;;;16.80;48.80;;;;;;6307928;22;20439;-68
2023/02/02 12:11:02;;;;;;;0.83;0.60;;;16.80;48.80;;;;;;6308159;22;20370;-68
2023/02/02 12:13:32;;;;;;;1.00;0.80;;;16.70;48.80;;;;;;6308234;22;20356;-68
2023/02/02 12:16:34;;;;;;;1.47;0.80;;;16.70;48.80;;;;;;6307473;22;20506;-68
2023/02/02 12:19:28;;;;;;;1.07;0.77;;;16.70;48.90;;;;;;6281189;22;20389;-68
2023/02/02 12:22:22;;;;;;;1.52;1.00;;;16.60;48.90;;;;;;6306756;22;20422;-68
2023/02/02 12:24:54;;;;;;;1.13;0.77;;;16.90;48.80;;;;;;6308559;22;20640;-68
2023/02/02 12:27:43;;;;;;;1.00;0.73;;;16.80;48.70;;;;;;6308203;22;20368;-67
2023/02/02 12:30:09;;;;;;;3.00;0.80;;;16.70;48.70;;;;;;6308284;22;20439;-68
2023/02/02 12:32:44;;;;;;;1.90;0.87;;;16.70;48.80;;;;;;6308484;22;20406;-68
2023/02/02 12:35:29;;;;;;;1.00;0.80;;;16.60;49.10;;;;;;6308267;22;20180;-68
2023/02/02 12:38:24;;;;;;;1.10;0.90;;;16.60;49.20;;;;;;6308584;22;20690;-69
2023/02/02 12:41:12;;;;;;;1.40;0.90;;;16.60;49.40;;;;;;6309453;22;20405;-69
2023/02/02 12:43:43;;;;;;;2.97;1.00;;;16.50;49.40;;;;;;6310032;22;20352;-69
2023/02/02 12:46:37;;;;;;;1.37;1.00;;;16.40;49.30;;;;;;6311182;22;20383;-68
2023/02/02 12:49:24;;;;;;;0.90;0.70;;;16.40;49.40;;;;;;6312942;22;20355;-68
2023/02/02 12:52:14;;;;;;;1.03;0.80;;;16.40;49.50;;;;;;6310113;22;20502;-68
2023/02/02 12:54:58;;;;;;;1.30;0.80;;;16.30;49.50;;;;;;6319114;22;20427;-68
2023/02/02 12:57:45;;;;;;;1.83;1.00;;;16.20;49.50;;;;;;6339405;22;20371;-67
2023/02/02 13:00:56;;;;;;;1.10;0.80;;;16.20;49.60;;;;;;6339563;22;20411;-66
2023/02/02 13:03:56;;;;;;;2.33;0.97;;;16.10;49.60;;;;;;6185399;23;20409;-67
2023/02/02 13:07:22;;;;;;;1.70;1.10;;;16.00;49.60;;;;;;6340766;22;20397;-68
2023/02/02 13:10:16;;;;;;;1.10;0.90;;;16.00;49.70;;;;;;6184965;23;20387;-68
2023/02/02 13:12:56;;;;;;;1.53;1.17;;;15.90;49.80;;;;;;6323617;22;20374;-67
2023/02/02 13:15:27;;;;;;;1.10;0.83;;;15.90;49.90;;;;;;6340891;22;20479;-67
2023/02/02 13:17:56;;;;;;;1.00;0.73;;;15.80;49.90;;;;;;6340887;22;20669;-68
2023/02/02 13:20:23;;;;;;;1.37;0.80;;;15.80;49.90;;;;;;6340700;22;20842;-68
2023/02/02 13:22:55;;;;;;;1.00;0.73;;;15.70;50.00;;;;;;6340609;22;20855;-67
2023/02/02 13:25:29;;;;;;;1.10;0.80;;;15.70;50.00;;;;;;6340736;22;20383;-68
2023/02/02 13:27:58;;;;;;;1.00;0.70;;;15.70;50.10;;;;;;6340834;22;20358;-67
2023/02/02 13:30:39;;;;;;;1.43;1.03;;;15.60;50.00;;;;;;6340343;22;20923;-67
2023/02/02 13:33:17;;;;;;;1.00;0.70;;;15.60;50.10;;;;;;6340755;22;20466;-68
2023/02/02 13:36:13;;;;;;;1.10;0.77;;;15.60;50.20;;;;;;6340071;22;20426;-67
2023/02/02 13:38:41;;;;;;;2.00;0.80;;;15.60;50.20;;;;;;6340139;22;20366;-68
2023/02/02 13:41:12;;;;;;;1.30;0.90;;;15.50;50.20;;;;;;6340289;22;20697;-68
2023/02/02 13:44:07;;;;;;;1.43;0.90;;;15.50;50.30;;;;;;6340813;22;20375;-67
2023/02/02 13:46:48;;;;;;;1.20;0.80;;;15.50;50.30;;;;;;6340954;22;20358;-68
2023/02/02 13:49:30;;;;;;;3.90;0.87;;;15.40;50.30;;;;;;6340705;22;20366;-68
2023/02/02 13:52:01;;;;;;;0.90;0.70;;;15.40;50.90;;;;;;6340261;22;20370;-68
2023/02/02 13:54:58;;;;;;;1.13;0.77;;;15.40;50.40;;;;;;6340127;22;20422;-67
2023/02/02 13:57:32;;;;;;;1.60;0.77;;;15.40;50.40;;;;;;6340773;22;20354;-68
2023/02/02 14:00:16;;;;;;;1.67;0.70;;;15.40;50.40;;;;;;6340423;22;20404;-67
2023/02/02 14:02:44;;;;;;;1.40;0.90;;;15.30;50.40;;;;;;6340309;22;20447;-67
2023/02/02 14:05:25;;;;;;;1.50;0.90;;;15.30;50.40;;;;;;6340345;22;20440;-67
2023/02/02 14:08:19;;;;;;;1.20;0.97;;;15.30;50.40;;;;;;6340577;22;20358;-67
2023/02/02 14:10:51;;;;;;;1.50;0.90;;;15.30;50.50;;;;;;6339569;22;20402;-67
2023/02/02 14:16:06;;;;;;;1.50;0.90;;;15.20;50.50;;;;;;6340182;22;20425;-67
2023/02/02 14:18:47;;;;;;;1.17;0.80;;;15.20;50.50;;;;;;6340542;22;20374;-67
2023/02/02 14:21:31;;;;;;;1.23;1.00;;;15.20;50.50;;;;;;6340478;22;20371;-68
2023/02/02 14:24:26;;;;;;;1.53;0.90;;;15.20;50.50;;;;;;6339996;22;20367;-67
2023/02/02 14:27:01;;;;;;;1.70;1.00;;;15.20;50.50;;;;;;6340005;22;20363;-67
2023/02/02 14:29:28;;;;;;;1.10;0.90;;;15.20;50.50;;;;;;6340708;22;20358;-68
2023/02/02 14:31:55;;;;;;;1.03;0.80;;;15.20;50.50;;;;;;6339902;22;20370;-68
2023/02/02 14:34:26;;;;;;;1.90;1.07;;;15.20;50.50;;;;;;6339797;22;20756;-68
2023/02/02 14:37:16;;;;;;;1.80;1.00;;;15.20;50.50;;;;;;6340293;22;20363;-68
2023/02/02 14:40:07;;;;;;;1.17;0.90;;;15.20;50.50;;;;;;6340079;22;20831;-68
2023/02/02 14:45:48;;;;;;;1.30;1.03;;;15.20;50.50;;;;;;6340010;22;20390;-68
2023/02/02 14:48:22;;;;;;;1.80;1.07;;;15.20;50.50;;;;;;6339975;22;20378;-68
2023/02/02 14:51:00;;;;;;;1.40;1.03;;;15.20;50.50;;;;;;6339926;22;20355;-68
2023/02/02 14:53:33;;;;;;;1.10;0.90;;;15.20;50.50;;;;;;6312142;22;20479;-68
2023/02/02 14:56:15;;;;;;;1.23;0.83;;;15.20;50.50;;;;;;6339669;22;20935;-68
2023/02/02 14:59:00;;;;;;;1.40;1.00;;;15.20;50.50;;;;;;6339866;22;20432;-68
2023/02/02 15:01:31;;;;;;;1.20;0.90;;;15.20;50.50;;;;;;6340017;22;20407;-67
2023/02/02 15:03:59;;;;;;;1.00;0.80;;;15.20;50.50;;;;;;6339653;22;20438;-68
2023/02/02 15:06:25;;;;;;;1.30;0.90;;;15.20;50.50;;;;;;6339892;22;20395;-68
2023/02/02 15:09:18;;;;;;;1.43;1.00;;;15.20;50.50;;;;;;6339858;22;20358;-68
2023/02/02 15:12:02;;;;;;;1.13;0.87;;;15.20;50.50;;;;;;6339986;22;20167;-68
2023/02/02 15:14:39;;;;;;;1.03;0.87;;;15.20;50.50;;;;;;6339456;22;20518;-68
2023/02/02 15:17:29;;;;;;;1.20;0.90;;;15.20;50.50;;;;;;6339704;22;20400;-68
2023/02/02 15:20:05;;;;;;;1.37;0.90;;;15.20;50.50;;;;;;6339983;22;20367;-68
2023/02/02 15:22:50;;;;;;;1.60;0.93;;;15.20;50.50;;;;;;6340115;22;20903;-67
2023/02/02 15:25:18;;;;;;;1.00;0.70;;;15.10;51.00;;;;;;6339391;22;20723;-68
2023/02/02 15:27:51;;;;;;;1.50;0.93;;;15.10;50.50;;;;;;6339996;22;20821;-68
2023/02/02 15:30:17;;;;;;;1.10;1.00;;;15.20;50.50;;;;;;6339714;22;20805;-68
2023/02/02 15:32:44;;;;;;;1.20;0.90;;;15.10;50.50;;;;;;6339539;22;20488;-68
2023/02/02 15:35:18;;;;;;;1.47;1.10;;;15.10;50.40;;;;;;6339810;22;20187;-68
2023/02/02 15:37:48;;;;;;;1.10;0.80;;;15.20;50.50;;;;;;6339608;22;20355;-68
2023/02/02 15:40:20;;;;;;;1.00;0.80;;;15.10;50.40;;;;;;6339990;22;20418;-68
2023/02/02 15:42:51;;;;;;;1.30;0.80;;;15.20;51.00;;;;;;6339493;22;20370;-68
2023/02/02 15:45:43;;;;;;;1.10;0.83;;;15.20;50.40;;;;;;6340247;22;20582;-68
2023/02/02 15:48:29;;;;;;;1.90;1.20;;;15.20;50.40;;;;;;6339333;22;20355;-68
2023/02/02 15:50:58;;;;;;;1.20;0.93;;;15.20;50.40;;;;;;6339793;22;20391;-68
2023/02/02 15:53:27;;;;;;;1.23;0.90;;;15.20;50.40;;;;;;6311748;22;20410;-68
2023/02/02 15:55:55;;;;;;;1.43;0.80;;;15.20;50.40;;;;;;6338952;22;20448;-69
2023/02/02 15:58:36;;;;;;;1.47;1.00;;;15.20;50.40;;;;;;6339676;22;20398;-68
2023/02/02 16:01:14;;;;;;;1.53;1.10;;;15.20;50.40;;;;;;6339544;22;20367;-68
2023/02/02 16:04:01;;;;;;;1.60;1.10;;;15.20;50.40;;;;;;6339616;22;20363;-69
2023/02/02 16:06:28;;;;;;;1.50;1.10;;;15.20;50.40;;;;;;6339552;22;20366;-68
2023/02/02 16:08:55;;;;;;;1.60;0.93;;;15.20;50.40;;;;;;6339758;22;20367;-68
2023/02/02 16:11:22;;;;;;;1.40;0.90;;;15.20;50.40;;;;;;6339774;22;20438;-68
2023/02/02 16:14:09;;;;;;;1.20;0.80;;;15.20;50.30;;;;;;6339509;22;20394;-68
2023/02/02 16:16:37;;;;;;;1.37;0.93;;;15.20;50.30;;;;;;6339615;22;20355;-68
2023/02/02 16:19:05;;;;;;;1.53;1.00;;;15.20;50.50;;;;;;6339508;22;20684;-68
2023/02/02 16:21:33;;;;;;;1.50;1.10;;;15.20;50.50;;;;;;6339168;22;20366;-69
2023/02/02 16:24:01;;;;;;;1.60;0.80;;;15.20;50.40;;;;;;6339261;22;20370;-68
2023/02/02 16:26:30;;;;;;;3.23;1.10;;;15.20;50.40;;;;;;6311552;22;20453;-68
2023/02/02 16:28:56;;;;;;;1.00;0.83;;;15.30;50.40;;;;;;6339076;22;20363;-68
2023/02/02 16:31:22;;;;;;;1.70;1.30;;;15.30;50.30;;;;;;6339362;22;20362;-68
2023/02/02 16:33:47;;;;;;;2.03;0.90;;;15.30;50.30;;;;;;6339658;22;20373;-68
2023/02/02 16:36:18;;;;;;;1.40;0.90;;;15.40;50.30;;;;;;6311716;22;20262;-67
2023/02/02 16:38:44;;;;;;;1.33;0.90;;;15.40;50.20;;;;;;6339328;22;20207;-67
2023/02/02 16:41:12;;;;;;;1.07;0.90;;;15.40;50.10;;;;;;6339107;22;20366;-68
2023/02/02 16:43:42;;;;;;;1.40;1.00;;;15.40;50.10;;;;;;6339367;22;20390;-68
2023/02/02 16:46:27;;;;;;;1.50;1.03;;;15.50;50.10;;;;;;6339076;22;20394;-68
2023/02/02 16:48:58;;;;;;;2.03;1.10;;;15.50;50.00;;;;;;6336904;22;20859;-68
2023/02/02 16:51:29;;;;;;;1.37;0.93;;;15.50;50.00;;;;;;6339216;22;20362;-68
2023/02/02 16:54:11;;;;;;;2.37;1.20;;;15.50;50.00;;;;;;6285627;22;20428;-68
2023/02/02 16:56:43;;;;;;;1.50;1.00;;;15.60;50.00;;;;;;6339427;22;20351;-68
2023/02/02 16:59:32;;;;;;;2.33;1.00;;;15.60;50.00;;;;;;6339259;22;20354;-68
2023/02/02 17:02:19;;;;;;;1.50;0.90;;;15.60;49.90;;;;;;6311649;22;20393;-69
2023/02/02 17:04:52;;;;;;;1.40;1.00;;;15.60;49.80;;;;;;6339041;22;20418;-68
2023/02/02 17:07:20;;;;;;;2.17;1.00;;;15.60;49.80;;;;;;6339814;22;20734;-68
2023/02/02 17:09:47;;;;;;;1.10;1.00;;;15.70;49.90;;;;;;6339812;22;20366;-68
2023/02/02 17:12:15;;;;;;;1.70;1.10;;;15.70;49.80;;;;;;6339962;22;20366;-68
2023/02/02 17:15:03;;;;;;;1.57;1.00;;;15.70;49.80;;;;;;6339252;22;20459;-68
2023/02/02 17:17:29;;;;;;;1.20;0.93;;;15.70;49.80;;;;;;6340263;22;20449;-68
2023/02/02 17:19:55;;;;;;;2.23;1.67;;;15.70;49.70;;;;;;6342465;22;20739;-68
2023/02/02 17:22:23;;;;;;;1.57;0.93;;;15.80;49.80;;;;;;6342051;22;20433;-68
2023/02/02 17:24:50;;;;;;;1.63;1.07;;;15.80;49.70;;;;;;6312994;22;20216;-68
2023/02/02 17:27:28;;;;;;;2.40;1.07;;;15.80;49.70;;;;;;6339531;22;20370;-69
2023/02/02 17:29:55;;;;;;;1.20;1.03;;;15.80;49.80;;;;;;6339460;22;20369;-67
2023/02/02 17:32:22;;;;;;;2.07;1.27;;;15.80;49.90;;;;;;6339544;22;20378;-69
2023/02/02 17:34:48;;;;;;;1.73;1.10;;;15.80;49.80;;;;;;6310852;22;20414;-66
2023/02/02 17:37:14;;;;;;;1.23;1.00;;;15.90;49.90;;;;;;6339193;22;20386;-68
2023/02/02 17:39:39;;;;;;;1.30;1.20;;;15.90;49.80;;;;;;6338651;22;20604;-68
2023/02/02 17:42:15;;;;;;;1.67;1.13;;;15.90;49.80;;;;;;6338830;22;20371;-69
2023/02/02 17:44:41;;;;;;;1.47;0.90;;;15.90;49.70;;;;;;6338895;22;20644;-69
2023/02/02 17:47:11;;;;;;;1.30;1.03;;;15.90;49.70;;;;;;6339170;22;20379;-69
2023/02/02 17:49:37;;;;;;;0.93;0.70;;;16.00;49.70;;;;;;6340541;22;20144;-68
2023/02/02 17:52:03;;;;;;;0.90;0.80;;;16.00;49.70;;;;;;6340396;22;20371;-69
2023/02/02 17:54:29;;;;;;;1.60;1.20;;;16.00;49.70;;;;;;6340164;22;20486;-69
2023/02/02 17:56:55;;;;;;;2.20;1.00;;;16.00;49.60;;;;;;6340373;22;20419;-69
2023/02/02 17:59:20;;;;;;;2.17;1.30;;;15.90;49.60;;;;;;6340291;22;20145;-69
2023/02/02 18:01:46;;;;;;;2.57;1.00;;;16.00;49.60;;;;;;6340757;22;20191;-68
2023/02/02 18:04:13;;;;;;;1.10;1.00;;;16.00;49.60;;;;;;6340550;22;20140;-69
2023/02/02 18:06:39;;;;;;;1.17;1.00;;;16.00;49.60;;;;;;6340482;22;20152;-69
2023/02/02 18:09:05;;;;;;;1.53;1.00;;;16.00;49.60;;;;;;6340669;22;20371;-69
2023/02/02 18:11:30;;;;;;;2.00;1.20;;;16.00;49.60;;;;;;6340128;22;20152;-69
2023/02/02 18:13:56;;;;;;;1.90;1.20;;;16.00;49.50;;;;;;6340324;22;20367;-68
2023/02/02 18:16:21;;;;;;;2.10;1.27;;;16.00;49.50;;;;;;6340467;22;20171;-69
2023/02/02 18:18:47;;;;;;;1.10;0.93;;;16.00;49.50;;;;;;6340250;22;20586;-70
2023/02/02 18:22:23;;;;;;;1.60;1.40;;;16.10;48.50;;;;;;5071992;28;20544;-60
2023/02/02 18:24:49;;;;;;;3.20;1.73;;;16.20;47.50;;;;;;5070943;28;20440;-59
2023/02/02 18:27:17;;;;;;;1.90;1.70;;;16.20;47.30;;;;;;5070753;28;20403;-62
2023/02/02 18:29:43;;;;;;;1.73;1.33;;;16.30;47.20;;;;;;5070623;28;20454;-61
2023/02/02 18:32:09;;;;;;;2.30;1.97;;;16.30;47.00;;;;;;5071037;28;20908;-61
2023/02/02 18:34:35;;;;;;;2.70;1.63;;;16.40;47.00;;;;;;5069414;28;20209;-61
2023/02/02 18:37:01;;;;;;;1.67;1.50;;;16.40;46.90;;;;;;5070600;28;20216;-64
2023/02/02 18:39:28;;;;;;;2.27;1.67;;;16.40;46.80;;;;;;5070714;28;20630;-65
2023/02/02 18:41:54;;;;;;;2.60;1.77;;;16.40;46.80;;;;;;5070804;28;20828;-64
2023/02/02 18:44:19;;;;;;;2.80;1.57;;;16.40;46.70;;;;;;5070622;28;20437;-62
2023/02/02 18:46:45;;;;;;;2.00;1.67;;;16.40;46.70;;;;;;5070682;28;20706;-62
2023/02/02 18:49:11;;;;;;;2.73;1.50;;;16.40;46.60;;;;;;5070707;28;20269;-62
2023/02/02 18:51:36;;;;;;;1.90;1.50;;;16.40;46.60;;;;;;5070591;28;20562;-61
2023/02/02 18:54:02;;;;;;;2.40;1.50;;;16.40;46.60;;;;;;5070433;28;20178;-61
2023/02/02 18:56:28;;;;;;;1.70;1.60;;;16.40;46.60;;;;;;5070412;28;20178;-60
2023/02/02 18:58:54;;;;;;;2.00;1.60;;;16.40;46.50;;;;;;5070603;28;20244;-62
2023/02/02 19:01:24;;;;;;;1.83;1.63;;;16.40;46.50;;;;;;5070633;28;20888;-62
2023/02/02 19:03:52;;;;;;;1.60;1.50;;;16.40;46.50;;;;;;5070682;28;20419;-63
2023/02/02 19:09:04;;;;;;;2.70;1.60;;;16.40;46.40;;;;;;5070403;28;20416;-60
2023/02/02 19:11:53;;;;;;;2.30;1.80;;;16.40;46.40;;;;;;5069012;28;20412;-64
2023/02/02 19:14:25;;;;;;;2.80;2.17;;;16.40;46.40;;;;;;5070230;28;20431;-63
2023/02/02 19:16:54;;;;;;;1.40;1.30;;;16.40;46.50;;;;;;5070043;28;20885;-63
2023/02/02 19:19:29;;;;;;;2.37;1.90;;;16.40;46.40;;;;;;5070163;28;20409;-64
2023/02/02 19:21:56;;;;;;;1.93;1.73;;;16.40;46.40;;;;;;5069983;28;20526;-63
2023/02/02 19:24:25;;;;;;;2.00;1.80;;;16.40;46.40;;;;;;5070236;28;20420;-63
2023/02/02 19:26:52;;;;;;;1.70;1.60;;;16.40;46.40;;;;;;5070033;28;20962;-63
2023/02/02 19:29:29;;;;;;;2.63;1.70;;;16.40;46.40;;;;;;5069916;28;20413;-63
2023/02/02 19:32:13;;;;;;;2.23;2.03;;;16.40;46.30;;;;;;5066990;28;20456;-64
2023/02/02 19:34:39;;;;;;;2.20;1.63;;;16.40;46.40;;;;;;5056522;28;20900;-63
2023/02/02 19:37:26;;;;;;;1.77;1.67;;;16.40;46.30;;;;;;5056267;28;20756;-63
2023/02/02 19:40:14;;;;;;;2.57;1.67;;;16.50;46.40;;;;;;5055700;28;20413;-63
2023/02/02 19:42:43;;;;;;;2.33;1.80;;;16.50;46.40;;;;;;5056486;28;20455;-63
2023/02/02 19:45:20;;;;;;;2.63;1.83;;;16.50;46.40;;;;;;5056562;28;20987;-63
2023/02/02 19:47:46;;;;;;;2.07;1.97;;;16.50;46.30;;;;;;5056651;28;20889;-63
2023/02/02 19:50:15;;;;;;;2.10;1.87;;;16.50;46.30;;;;;;5056343;28;20405;-62
2023/02/02 19:52:41;;;;;;;1.80;1.60;;;16.50;46.30;;;;;;5056512;28;20394;-63
2023/02/02 19:55:21;;;;;;;2.80;2.10;;;16.50;46.30;;;;;;5055818;28;20428;-62
2023/02/02 19:57:46;;;;;;;2.27;1.90;;;16.60;46.30;;;;;;5056180;28;20390;-64
2023/02/02 20:00:25;;;;;;;3.40;1.90;;;16.50;46.20;;;;;;5056093;28;20432;-63
2023/02/02 20:03:06;;;;;;;1.93;1.77;;;16.60;46.20;;;;;;5056482;28;20175;-63
2023/02/02 20:05:34;;;;;;;3.27;2.10;;;16.60;46.20;;;;;;5056039;28;20431;-63
2023/02/02 20:08:04;;;;;;;3.50;2.23;;;16.60;46.80;;;;;;5056015;28;20868;-62
2023/02/02 20:10:44;;;;;;;2.20;2.00;;;16.60;46.20;;;;;;5055751;28;20409;-62
2023/02/02 20:13:24;;;;;;;2.30;2.10;;;16.60;46.20;;;;;;5055670;28;20760;-62
2023/02/02 20:15:52;;;;;;;2.57;2.20;;;16.60;46.20;;;;;;5055531;28;20430;-60
2023/02/02 20:18:26;;;;;;;2.83;2.53;;;16.60;46.20;;;;;;5055480;28;20417;-63
2023/02/02 20:20:54;;;;;;;2.53;2.20;;;16.60;46.30;;;;;;5055445;28;20456;-63
2023/02/02 20:23:42;;;;;;;2.70;2.23;;;16.60;46.20;;;;;;5055646;28;20401;-61
2023/02/02 20:26:27;;;;;;;2.47;2.13;;;16.60;46.20;;;;;;5055068;28;20449;-59
2023/02/02 20:28:58;;;;;;;2.80;2.07;;;16.70;46.30;;;;;;5055228;28;20423;-62
2023/02/02 20:31:34;;;;;;;2.27;2.07;;;16.60;46.20;;;;;;5055057;28;20413;-61
2023/02/02 20:34:00;;;;;;;2.80;2.13;;;16.60;46.10;;;;;;5055246;28;20412;-62
2023/02/02 20:36:45;;;;;;;3.30;2.50;;;16.60;46.20;;;;;;5055094;28;20409;-61
2023/02/02 20:39:38;;;;;;;2.60;2.40;;;16.70;46.20;;;;;;5054989;28;20932;-61
2023/02/02 20:42:03;;;;;;;2.30;2.10;;;16.60;46.10;;;;;;5055152;28;21022;-62
2023/02/02 20:44:31;;;;;;;2.70;2.40;;;16.60;46.10;;;;;;5053915;28;20430;-64
2023/02/02 20:46:59;;;;;;;2.70;2.40;;;16.60;46.10;;;;;;5055078;28;20177;-61
2023/02/02 20:49:25;;;;;;;2.90;2.57;;;16.70;46.20;;;;;;5055071;28;20418;-63
2023/02/02 20:51:55;;;;;;;5.43;2.43;;;16.70;46.10;;;;;;5054352;28;20453;-63
2023/02/02 20:54:21;;;;;;;4.40;2.60;;;16.70;46.30;;;;;;5054718;28;20437;-64
2023/02/02 20:56:47;;;;;;;4.53;2.27;;;16.70;46.80;;;;;;5055086;28;20783;-61
2023/02/02 20:59:13;;;;;;;3.93;2.40;;;16.70;46.90;;;;;;5054795;28;20410;-62
2023/02/02 21:01:39;;;;;;;3.10;2.80;;;16.70;46.80;;;;;;5054663;28;20464;-62
2023/02/02 21:04:06;;;;;;;2.63;2.43;;;16.70;46.90;;;;;;5054730;28;20182;-64
2023/02/02 21:06:36;;;;;;;2.57;2.37;;;16.70;46.80;;;;;;5054591;28;20262;-63
2023/02/02 21:09:03;;;;;;;4.73;2.20;;;16.70;46.80;;;;;;5054857;28;20394;-64
2023/02/02 21:11:29;;;;;;;3.00;2.57;;;16.70;46.70;;;;;;5055087;28;20422;-60
2023/02/02 21:13:56;;;;;;;2.73;2.47;;;16.70;46.70;;;;;;5054740;28;20742;-59
2023/02/02 21:16:22;;;;;;;2.40;2.20;;;16.70;46.60;;;;;;5054355;28;20182;-62
2023/02/02 21:18:47;;;;;;;3.13;2.50;;;16.80;46.60;;;;;;5054309;28;20504;-61
2023/02/02 21:21:15;;;;;;;3.07;2.57;;;16.80;46.50;;;;;;5054006;28;20552;-61
2023/02/02 21:23:45;;;;;;;2.50;2.20;;;16.80;46.50;;;;;;5054243;28;20237;-60
2023/02/02 21:26:14;;;;;;;2.80;2.20;;;16.80;46.40;;;;;;5054536;28;20425;-63
2023/02/02 21:28:39;;;;;;;2.40;2.20;;;16.80;46.40;;;;;;5055088;28;20409;-64
2023/02/02 21:31:06;;;;;;;3.03;2.50;;;16.80;46.40;;;;;;5054480;28;20528;-63
2023/02/02 21:33:32;;;;;;;3.20;2.90;;;16.80;46.40;;;;;;5053919;28;20233;-63
2023/02/02 21:36:01;;;;;;;2.93;2.60;;;16.70;46.30;;;;;;5054008;28;20425;-63
2023/02/02 21:38:27;;;;;;;5.63;2.83;;;16.70;46.30;;;;;;5054185;28;20178;-60
2023/02/02 21:40:54;;;;;;;3.00;2.77;;;16.70;46.30;;;;;;5054036;28;20456;-62
2023/02/02 21:43:19;;;;;;;2.97;2.60;;;16.70;46.40;;;;;;5053741;28;20531;-62
2023/02/02 21:45:55;;;;;;;3.07;2.80;;;16.60;46.30;;;;;;5052204;28;20438;-62
2023/02/02 21:48:35;;;;;;;3.07;2.70;;;16.70;46.40;;;;;;5054076;28;20249;-62
2023/02/02 21:51:24;;;;;;;3.37;2.53;;;16.60;46.40;;;;;;5054016;28;20836;-62
2023/02/02 21:53:50;;;;;;;3.07;2.70;;;16.60;46.40;;;;;;5053673;28;20451;-62
2023/02/02 21:56:29;;;;;;;3.13;2.83;;;16.50;46.40;;;;;;5053677;28;20975;-62
2023/02/02 21:58:59;;;;;;;3.70;2.93;;;16.50;46.40;;;;;;5053719;28;20412;-63
2023/02/02 22:01:34;;;;;;;3.47;3.17;;;16.50;46.40;;;;;;5054907;28;20453;-63
2023/02/02 22:04:00;;;;;;;4.13;2.70;;;16.50;46.50;;;;;;5053866;28;20435;-62
2023/02/02 22:06:33;;;;;;;3.40;3.00;;;16.50;46.50;;;;;;5053738;28;20401;-59
2023/02/02 22:09:19;;;;;;;3.63;2.80;;;16.50;46.50;;;;;;5054458;28;20274;-61
2023/02/02 22:11:51;;;;;;;5.43;3.33;;;16.40;46.50;;;;;;5053447;28;20414;-59
2023/02/02 22:14:20;;;;;;;3.10;2.70;;;16.40;46.50;;;;;;5053497;28;20429;-61
2023/02/02 22:16:49;;;;;;;3.20;2.67;;;16.40;46.50;;;;;;5053521;28;20429;-65
2023/02/02 22:19:37;;;;;;;2.93;2.50;;;16.40;46.60;;;;;;5053514;28;20789;-65
2023/02/02 22:22:12;;;;;;;2.90;2.70;;;16.40;46.60;;;;;;5053468;28;20468;-65
2023/02/02 22:24:38;;;;;;;3.50;3.20;;;16.30;46.50;;;;;;5053692;28;20433;-61
2023/02/02 22:27:16;;;;;;;3.30;3.00;;;16.30;46.50;;;;;;5054030;28;20873;-61
2023/02/02 22:29:41;;;;;;;5.10;2.87;;;16.30;46.50;;;;;;5053665;28;20171;-61
2023/02/02 22:32:07;;;;;;;3.97;3.57;;;16.30;46.60;;;;;;5053320;28;20416;-61
2023/02/02 22:34:33;;;;;;;3.50;3.20;;;16.30;46.60;;;;;;5053096;28;20195;-60
2023/02/02 22:36:58;;;;;;;4.40;2.90;;;16.30;46.60;;;;;;5053559;28;20206;-61
2023/02/02 22:39:24;;;;;;;2.90;2.70;;;16.20;46.50;;;;;;5053406;28;20179;-62
2023/02/02 22:41:49;;;;;;;2.90;2.60;;;16.20;46.50;;;;;;5053450;28;20613;-64
2023/02/02 22:44:15;;;;;;;5.60;3.00;;;16.20;46.60;;;;;;5053324;28;20194;-62
2023/02/02 22:46:40;;;;;;;3.70;3.27;;;16.20;46.60;;;;;;5053168;28;20197;-61
2023/02/02 22:49:06;;;;;;;4.23;2.50;;;16.20;46.60;;;;;;5053059;28;20657;-63
2023/02/02 22:51:31;;;;;;;4.13;3.20;;;16.20;46.60;;;;;;5053594;28;20175;-62
2023/02/02 22:53:57;;;;;;;4.20;2.97;;;16.20;46.60;;;;;;5053224;28;20206;-61
2023/02/02 22:56:23;;;;;;;3.60;3.20;;;16.20;46.60;;;;;;5053211;28;20179;-64
2023/02/02 22:58:48;;;;;;;3.50;3.20;;;16.20;46.60;;;;;;5053396;28;20686;-60
2023/02/02 23:01:14;;;;;;;3.00;2.70;;;16.10;46.50;;;;;;5053389;28;20213;-62
2023/02/02 23:03:39;;;;;;;3.47;3.17;;;16.10;46.60;;;;;;5052966;28;20666;-65
2023/02/02 23:06:05;;;;;;;3.33;3.00;;;16.10;46.60;;;;;;5053105;28;20187;-63
2023/02/02 23:08:31;;;;;;;3.30;2.80;;;16.10;46.60;;;;;;5056106;28;20164;-62
2023/02/02 23:10:56;;;;;;;3.20;2.90;;;16.10;46.60;;;;;;5057115;28;20163;-65
2023/02/02 23:13:22;;;;;;;3.13;2.63;;;16.10;46.70;;;;;;5056921;28;20186;-64
2023/02/02 23:15:47;;;;;;;2.90;2.70;;;16.10;46.70;;;;;;5056820;28;20199;-62
2023/02/02 23:18:13;;;;;;;3.00;2.70;;;16.10;46.70;;;;;;5056860;28;20171;-61
2023/02/02 23:20:38;;;;;;;3.07;2.77;;;16.10;46.70;;;;;;5056381;28;20558;-60
